sensor_id;sensor_type;location;lat;lon;timestamp;P1;durP1;ratioP1;P2;durP2;ratioP2
72924;SDS011;61070;50.794;7.054;2023-03-01T00:01:05;25.83;;;11.77;;
72924;SDS011;61070;50.794;7.054;2023-03-01T00:03:32;22.55;;;11.23;;
72924;SDS011;61070;50.794;7.054;2023-03-01T00:05:58;24.92;;;10.25;;
72924;SDS011;61070;50.794;7.054;2023-03-01T00:08:24;20.23;;;11.48;;
72924;SDS011;61070;50.794;7.054;2023-03-01T00:10:56;22.60;;;11.20;;
72924;SDS011;61070;50.794;7.054;2023-03-01T00:15:55;23.08;;;12.50;;
72924;SDS011;61070;50.794;7.054;2023-03-01T00:18:20;27.02;;;12.85;;
72924;SDS011;61070;50.794;7.054;2023-03-01T00:20:53;22.98;;;13.07;;
72924;SDS011;61070;50.794;7.054;2023-03-01T00:23:19;25.60;;;12.95;;
72924;SDS011;61070;50.794;7.054;2023-03-01T00:25:45;32.72;;;13.55;;
72924;SDS011;61070;50.794;7.054;2023-03-01T00:28:10;29.13;;;13.23;;
72924;SDS011;61070;50.794;7.054;2023-03-01T00:30:36;26.83;;;12.50;;
72924;SDS011;61070;50.794;7.054;2023-03-01T00:33:01;33.88;;;13.57;;
72924;SDS011;61070;50.794;7.054;2023-03-01T00:35:26;27.45;;;13.20;;
72924;SDS011;61070;50.794;7.054;2023-03-01T00:37:52;31.80;;;13.20;;
72924;SDS011;61070;50.794;7.054;2023-03-01T00:40:29;26.98;;;11.07;;
72924;SDS011;61070;50.794;7.054;2023-03-01T00:42:56;24.48;;;11.57;;
72924;SDS011;61070;50.794;7.054;2023-03-01T00:45:22;25.77;;;11.48;;
72924;SDS011;61070;50.794;7.054;2023-03-01T00:47:48;20.33;;;10.82;;
72924;SDS011;61070;50.794;7.054;2023-03-01T00:50:14;22.30;;;9.90;;
72924;SDS011;61070;50.794;7.054;2023-03-01T00:52:39;23.65;;;11.05;;
72924;SDS011;61070;50.794;7.054;2023-03-01T00:55:05;24.13;;;10.88;;
72924;SDS011;61070;50.794;7.054;2023-03-01T00:57:31;18.13;;;10.07;;
72924;SDS011;61070;50.794;7.054;2023-03-01T00:59:57;20.20;;;9.98;;
72924;SDS011;61070;50.794;7.054;2023-03-01T01:02:22;23.40;;;10.95;;
72924;SDS011;61070;50.794;7.054;2023-03-01T01:04:49;19.23;;;10.98;;
72924;SDS011;61070;50.794;7.054;2023-03-01T01:07:14;24.65;;;10.65;;
72924;SDS011;61070;50.794;7.054;2023-03-01T01:09:40;23.35;;;10.30;;
72924;SDS011;61070;50.794;7.054;2023-03-01T01:12:06;23.05;;;10.65;;
72924;SDS011;61070;50.794;7.054;2023-03-01T01:14:32;18.40;;;9.32;;
72924;SDS011;61070;50.794;7.054;2023-03-01T01:16:57;17.55;;;9.75;;
72924;SDS011;61070;50.794;7.054;2023-03-01T01:19:23;22.05;;;10.18;;
72924;SDS011;61070;50.794;7.054;2023-03-01T01:21:49;23.23;;;11.35;;
72924;SDS011;61070;50.794;7.054;2023-03-01T01:24:15;16.95;;;9.90;;
72924;SDS011;61070;50.794;7.054;2023-03-01T01:26:40;21.30;;;10.30;;
72924;SDS011;61070;50.794;7.054;2023-03-01T01:29:06;22.92;;;10.38;;
72924;SDS011;61070;50.794;7.054;2023-03-01T01:31:32;18.48;;;9.63;;
72924;SDS011;61070;50.794;7.054;2023-03-01T01:33:59;19.27;;;9.38;;
72924;SDS011;61070;50.794;7.054;2023-03-01T01:36:25;25.33;;;11.35;;
72924;SDS011;61070;50.794;7.054;2023-03-01T01:38:51;15.38;;;9.48;;
72924;SDS011;61070;50.794;7.054;2023-03-01T01:41:17;19.60;;;9.90;;
72924;SDS011;61070;50.794;7.054;2023-03-01T01:44:28;23.55;;;10.38;;
72924;SDS011;61070;50.794;7.054;2023-03-01T01:46:40;19.55;;;9.95;;
72924;SDS011;61070;50.794;7.054;2023-03-01T01:49:20;17.88;;;10.20;;
72924;SDS011;61070;50.794;7.054;2023-03-01T01:51:50;17.77;;;9.55;;
72924;SDS011;61070;50.794;7.054;2023-03-01T01:54:23;19.13;;;9.25;;
72924;SDS011;61070;50.794;7.054;2023-03-01T01:56:55;19.30;;;10.50;;
72924;SDS011;61070;50.794;7.054;2023-03-01T01:59:25;18.55;;;9.75;;
72924;SDS011;61070;50.794;7.054;2023-03-01T02:01:52;18.80;;;10.05;;
72924;SDS011;61070;50.794;7.054;2023-03-01T02:04:18;22.08;;;9.82;;
72924;SDS011;61070;50.794;7.054;2023-03-01T02:06:51;19.90;;;9.82;;
72924;SDS011;61070;50.794;7.054;2023-03-01T02:09:23;19.73;;;9.73;;
72924;SDS011;61070;50.794;7.054;2023-03-01T02:11:48;19.77;;;10.27;;
72924;SDS011;61070;50.794;7.054;2023-03-01T02:14:15;19.42;;;10.00;;
72924;SDS011;61070;50.794;7.054;2023-03-01T02:16:41;21.48;;;10.40;;
72924;SDS011;61070;50.794;7.054;2023-03-01T02:19:07;22.15;;;10.75;;
72924;SDS011;61070;50.794;7.054;2023-03-01T02:27:04;23.48;;;9.73;;
72924;SDS011;61070;50.794;7.054;2023-03-01T02:29:30;20.95;;;10.00;;
72924;SDS011;61070;50.794;7.054;2023-03-01T02:31:56;15.88;;;9.30;;
72924;SDS011;61070;50.794;7.054;2023-03-01T02:34:24;18.92;;;10.38;;
72924;SDS011;61070;50.794;7.054;2023-03-01T02:37:00;22.58;;;9.55;;
72924;SDS011;61070;50.794;7.054;2023-03-01T02:39:45;21.17;;;11.07;;
72924;SDS011;61070;50.794;7.054;2023-03-01T02:42:14;25.05;;;11.05;;
72924;SDS011;61070;50.794;7.054;2023-03-01T02:44:45;22.00;;;11.63;;
72924;SDS011;61070;50.794;7.054;2023-03-01T02:47:10;25.05;;;11.02;;
72924;SDS011;61070;50.794;7.054;2023-03-01T02:49:36;18.98;;;10.98;;
72924;SDS011;61070;50.794;7.054;2023-03-01T02:57:28;20.65;;;11.00;;
72924;SDS011;61070;50.794;7.054;2023-03-01T02:59:56;22.20;;;11.02;;
72924;SDS011;61070;50.794;7.054;2023-03-01T03:02:27;27.98;;;11.07;;
72924;SDS011;61070;50.794;7.054;2023-03-01T03:05:20;25.45;;;10.93;;
72924;SDS011;61070;50.794;7.054;2023-03-01T03:07:47;22.70;;;10.90;;
72924;SDS011;61070;50.794;7.054;2023-03-01T03:10:15;22.33;;;10.77;;
72924;SDS011;61070;50.794;7.054;2023-03-01T03:12:52;17.95;;;10.73;;
72924;SDS011;61070;50.794;7.054;2023-03-01T03:15:20;18.33;;;11.10;;
72924;SDS011;61070;50.794;7.054;2023-03-01T03:17:46;21.65;;;10.90;;
72924;SDS011;61070;50.794;7.054;2023-03-01T03:20:12;20.73;;;11.48;;
72924;SDS011;61070;50.794;7.054;2023-03-01T03:22:43;19.13;;;10.30;;
72924;SDS011;61070;50.794;7.054;2023-03-01T03:25:11;23.10;;;12.18;;
72924;SDS011;61070;50.794;7.054;2023-03-01T03:27:37;23.63;;;11.60;;
72924;SDS011;61070;50.794;7.054;2023-03-01T03:30:05;23.20;;;11.93;;
72924;SDS011;61070;50.794;7.054;2023-03-01T03:32:37;13.18;;;8.55;;
72924;SDS011;61070;50.794;7.054;2023-03-01T03:35:03;20.43;;;11.87;;
72924;SDS011;61070;50.794;7.054;2023-03-01T03:37:35;23.85;;;11.65;;
72924;SDS011;61070;50.794;7.054;2023-03-01T03:40:20;22.90;;;11.68;;
72924;SDS011;61070;50.794;7.054;2023-03-01T03:42:45;21.65;;;11.40;;
72924;SDS011;61070;50.794;7.054;2023-03-01T03:45:10;24.38;;;12.27;;
72924;SDS011;61070;50.794;7.054;2023-03-01T03:47:35;22.15;;;11.30;;
72924;SDS011;61070;50.794;7.054;2023-03-01T03:50:01;20.67;;;11.30;;
72924;SDS011;61070;50.794;7.054;2023-03-01T03:52:26;22.27;;;11.27;;
72924;SDS011;61070;50.794;7.054;2023-03-01T03:54:51;19.52;;;10.60;;
72924;SDS011;61070;50.794;7.054;2023-03-01T03:57:16;25.33;;;11.68;;
72924;SDS011;61070;50.794;7.054;2023-03-01T03:59:42;25.33;;;11.75;;
72924;SDS011;61070;50.794;7.054;2023-03-01T04:02:07;25.98;;;12.52;;
72924;SDS011;61070;50.794;7.054;2023-03-01T04:04:33;23.33;;;13.32;;
72924;SDS011;61070;50.794;7.054;2023-03-01T04:06:59;27.77;;;12.43;;
72924;SDS011;61070;50.794;7.054;2023-03-01T04:09:24;29.40;;;12.85;;
72924;SDS011;61070;50.794;7.054;2023-03-01T04:11:50;22.25;;;12.43;;
72924;SDS011;61070;50.794;7.054;2023-03-01T04:14:15;18.70;;;11.52;;
72924;SDS011;61070;50.794;7.054;2023-03-01T04:16:40;26.70;;;12.00;;
72924;SDS011;61070;50.794;7.054;2023-03-01T04:19:06;19.48;;;11.57;;
72924;SDS011;61070;50.794;7.054;2023-03-01T04:21:31;22.63;;;11.18;;
72924;SDS011;61070;50.794;7.054;2023-03-01T04:23:56;20.33;;;11.65;;
72924;SDS011;61070;50.794;7.054;2023-03-01T04:26:22;27.00;;;12.88;;
72924;SDS011;61070;50.794;7.054;2023-03-01T04:28:47;20.48;;;11.15;;
72924;SDS011;61070;50.794;7.054;2023-03-01T04:31:17;26.65;;;11.48;;
72924;SDS011;61070;50.794;7.054;2023-03-01T04:33:47;24.45;;;11.55;;
72924;SDS011;61070;50.794;7.054;2023-03-01T04:38:42;20.80;;;10.55;;
72924;SDS011;61070;50.794;7.054;2023-03-01T04:41:12;19.90;;;11.48;;
72924;SDS011;61070;50.794;7.054;2023-03-01T04:43:38;25.13;;;11.70;;
72924;SDS011;61070;50.794;7.054;2023-03-01T04:46:07;26.08;;;11.52;;
72924;SDS011;61070;50.794;7.054;2023-03-01T04:48:35;21.30;;;11.48;;
72924;SDS011;61070;50.794;7.054;2023-03-01T04:51:05;22.48;;;11.35;;
72924;SDS011;61070;50.794;7.054;2023-03-01T04:53:31;19.27;;;10.85;;
72924;SDS011;61070;50.794;7.054;2023-03-01T04:55:57;24.48;;;12.10;;
72924;SDS011;61070;50.794;7.054;2023-03-01T04:58:24;23.83;;;11.43;;
72924;SDS011;61070;50.794;7.054;2023-03-01T05:00:50;22.83;;;12.15;;
72924;SDS011;61070;50.794;7.054;2023-03-01T05:03:17;24.92;;;11.40;;
72924;SDS011;61070;50.794;7.054;2023-03-01T05:05:43;26.92;;;11.93;;
72924;SDS011;61070;50.794;7.054;2023-03-01T05:08:11;23.98;;;12.55;;
72924;SDS011;61070;50.794;7.054;2023-03-01T05:10:43;20.45;;;11.63;;
72924;SDS011;61070;50.794;7.054;2023-03-01T05:13:11;26.27;;;11.27;;
72924;SDS011;61070;50.794;7.054;2023-03-01T05:15:38;24.70;;;12.20;;
72924;SDS011;61070;50.794;7.054;2023-03-01T05:18:04;24.08;;;11.75;;
72924;SDS011;61070;50.794;7.054;2023-03-01T05:20:36;19.98;;;11.27;;
72924;SDS011;61070;50.794;7.054;2023-03-01T05:23:02;25.77;;;12.70;;
72924;SDS011;61070;50.794;7.054;2023-03-01T05:25:30;25.02;;;12.18;;
72924;SDS011;61070;50.794;7.054;2023-03-01T05:27:58;23.95;;;12.43;;
72924;SDS011;61070;50.794;7.054;2023-03-01T05:30:23;19.48;;;11.88;;
72924;SDS011;61070;50.794;7.054;2023-03-01T05:32:50;25.05;;;11.52;;
72924;SDS011;61070;50.794;7.054;2023-03-01T05:35:20;23.60;;;12.43;;
72924;SDS011;61070;50.794;7.054;2023-03-01T05:37:47;22.02;;;12.27;;
72924;SDS011;61070;50.794;7.054;2023-03-01T05:40:21;22.48;;;11.65;;
72924;SDS011;61070;50.794;7.054;2023-03-01T05:42:52;25.42;;;12.60;;
72924;SDS011;61070;50.794;7.054;2023-03-01T05:45:19;23.33;;;10.77;;
72924;SDS011;61070;50.794;7.054;2023-03-01T05:47:46;25.83;;;11.77;;
72924;SDS011;61070;50.794;7.054;2023-03-01T05:50:13;20.05;;;11.48;;
72924;SDS011;61070;50.794;7.054;2023-03-01T05:52:44;32.45;;;13.25;;
72924;SDS011;61070;50.794;7.054;2023-03-01T05:55:15;20.92;;;9.18;;
72924;SDS011;61070;50.794;7.054;2023-03-01T05:57:44;22.73;;;12.50;;
72924;SDS011;61070;50.794;7.054;2023-03-01T06:00:10;24.40;;;11.50;;
72924;SDS011;61070;50.794;7.054;2023-03-01T06:02:36;23.70;;;12.02;;
72924;SDS011;61070;50.794;7.054;2023-03-01T06:05:02;24.52;;;11.65;;
72924;SDS011;61070;50.794;7.054;2023-03-01T06:07:31;25.90;;;12.40;;
72924;SDS011;61070;50.794;7.054;2023-03-01T06:09:56;23.15;;;12.75;;
72924;SDS011;61070;50.794;7.054;2023-03-01T06:12:21;22.42;;;11.30;;
72924;SDS011;61070;50.794;7.054;2023-03-01T06:14:47;22.75;;;12.55;;
72924;SDS011;61070;50.794;7.054;2023-03-01T06:17:12;27.88;;;13.70;;
72924;SDS011;61070;50.794;7.054;2023-03-01T06:19:38;21.85;;;12.57;;
72924;SDS011;61070;50.794;7.054;2023-03-01T06:22:03;22.83;;;12.57;;
72924;SDS011;61070;50.794;7.054;2023-03-01T06:24:29;23.52;;;11.60;;
72924;SDS011;61070;50.794;7.054;2023-03-01T06:26:54;25.58;;;12.52;;
72924;SDS011;61070;50.794;7.054;2023-03-01T06:29:20;24.08;;;11.25;;
72924;SDS011;61070;50.794;7.054;2023-03-01T06:31:47;26.25;;;12.85;;
72924;SDS011;61070;50.794;7.054;2023-03-01T06:34:12;21.83;;;12.48;;
72924;SDS011;61070;50.794;7.054;2023-03-01T06:36:38;34.20;;;15.57;;
72924;SDS011;61070;50.794;7.054;2023-03-01T06:39:05;24.23;;;11.95;;
72924;SDS011;61070;50.794;7.054;2023-03-01T06:41:30;22.63;;;12.73;;
72924;SDS011;61070;50.794;7.054;2023-03-01T06:43:56;27.75;;;12.48;;
72924;SDS011;61070;50.794;7.054;2023-03-01T06:46:21;22.00;;;12.30;;
72924;SDS011;61070;50.794;7.054;2023-03-01T06:48:47;25.70;;;12.15;;
72924;SDS011;61070;50.794;7.054;2023-03-01T06:51:12;26.52;;;13.95;;
72924;SDS011;61070;50.794;7.054;2023-03-01T06:53:37;30.70;;;12.80;;
72924;SDS011;61070;50.794;7.054;2023-03-01T06:56:03;32.70;;;11.82;;
72924;SDS011;61070;50.794;7.054;2023-03-01T06:58:28;31.83;;;13.77;;
72924;SDS011;61070;50.794;7.054;2023-03-01T07:00:55;35.38;;;13.35;;
72924;SDS011;61070;50.794;7.054;2023-03-01T07:03:20;26.02;;;12.50;;
72924;SDS011;61070;50.794;7.054;2023-03-01T07:05:48;31.40;;;12.85;;
72924;SDS011;61070;50.794;7.054;2023-03-01T07:08:14;26.25;;;12.30;;
72924;SDS011;61070;50.794;7.054;2023-03-01T07:10:39;21.70;;;12.10;;
72924;SDS011;61070;50.794;7.054;2023-03-01T07:13:05;23.75;;;11.90;;
72924;SDS011;61070;50.794;7.054;2023-03-01T07:15:31;27.85;;;14.05;;
72924;SDS011;61070;50.794;7.054;2023-03-01T07:17:57;28.40;;;13.38;;
72924;SDS011;61070;50.794;7.054;2023-03-01T07:20:23;22.05;;;13.35;;
72924;SDS011;61070;50.794;7.054;2023-03-01T07:22:50;26.05;;;11.63;;
72924;SDS011;61070;50.794;7.054;2023-03-01T07:25:16;28.35;;;12.38;;
72924;SDS011;61070;50.794;7.054;2023-03-01T07:27:41;21.90;;;12.60;;
72924;SDS011;61070;50.794;7.054;2023-03-01T07:30:07;24.95;;;11.80;;
72924;SDS011;61070;50.794;7.054;2023-03-01T07:32:33;28.10;;;13.63;;
72924;SDS011;61070;50.794;7.054;2023-03-01T07:34:58;32.20;;;15.13;;
72924;SDS011;61070;50.794;7.054;2023-03-01T07:37:23;24.25;;;11.77;;
72924;SDS011;61070;50.794;7.054;2023-03-01T07:39:49;34.10;;;13.07;;
72924;SDS011;61070;50.794;7.054;2023-03-01T07:42:14;38.28;;;15.20;;
72924;SDS011;61070;50.794;7.054;2023-03-01T07:44:39;30.48;;;13.88;;
72924;SDS011;61070;50.794;7.054;2023-03-01T07:47:05;31.30;;;13.98;;
72924;SDS011;61070;50.794;7.054;2023-03-01T07:49:30;39.92;;;14.93;;
72924;SDS011;61070;50.794;7.054;2023-03-01T07:51:55;27.98;;;14.18;;
72924;SDS011;61070;50.794;7.054;2023-03-01T07:54:22;33.97;;;15.15;;
72924;SDS011;61070;50.794;7.054;2023-03-01T07:56:51;33.30;;;14.90;;
72924;SDS011;61070;50.794;7.054;2023-03-01T07:59:16;25.45;;;14.30;;
72924;SDS011;61070;50.794;7.054;2023-03-01T08:01:42;26.35;;;14.32;;
72924;SDS011;61070;50.794;7.054;2023-03-01T08:04:07;26.98;;;14.68;;
72924;SDS011;61070;50.794;7.054;2023-03-01T08:06:33;30.30;;;14.15;;
72924;SDS011;61070;50.794;7.054;2023-03-01T08:08:59;25.95;;;13.57;;
72924;SDS011;61070;50.794;7.054;2023-03-01T08:11:24;30.70;;;13.93;;
72924;SDS011;61070;50.794;7.054;2023-03-01T08:13:50;37.63;;;13.88;;
72924;SDS011;61070;50.794;7.054;2023-03-01T08:16:15;30.35;;;14.27;;
72924;SDS011;61070;50.794;7.054;2023-03-01T08:18:41;29.70;;;13.40;;
72924;SDS011;61070;50.794;7.054;2023-03-01T08:21:08;28.85;;;14.73;;
72924;SDS011;61070;50.794;7.054;2023-03-01T08:23:35;30.90;;;15.73;;
72924;SDS011;61070;50.794;7.054;2023-03-01T08:26:07;30.85;;;15.10;;
72924;SDS011;61070;50.794;7.054;2023-03-01T08:28:35;36.22;;;16.23;;
72924;SDS011;61070;50.794;7.054;2023-03-01T08:31:00;25.85;;;13.00;;
72924;SDS011;61070;50.794;7.054;2023-03-01T08:33:26;27.77;;;14.85;;
72924;SDS011;61070;50.794;7.054;2023-03-01T08:35:51;30.95;;;15.52;;
72924;SDS011;61070;50.794;7.054;2023-03-01T08:38:17;28.17;;;14.40;;
72924;SDS011;61070;50.794;7.054;2023-03-01T08:40:42;34.63;;;15.43;;
72924;SDS011;61070;50.794;7.054;2023-03-01T08:43:07;35.47;;;14.52;;
72924;SDS011;61070;50.794;7.054;2023-03-01T08:45:32;33.08;;;15.35;;
72924;SDS011;61070;50.794;7.054;2023-03-01T08:47:58;35.95;;;15.48;;
72924;SDS011;61070;50.794;7.054;2023-03-01T08:50:23;37.47;;;15.75;;
72924;SDS011;61070;50.794;7.054;2023-03-01T08:52:49;31.08;;;16.02;;
72924;SDS011;61070;50.794;7.054;2023-03-01T08:55:15;30.80;;;15.48;;
72924;SDS011;61070;50.794;7.054;2023-03-01T08:57:42;29.20;;;15.40;;
72924;SDS011;61070;50.794;7.054;2023-03-01T09:00:07;32.72;;;15.38;;
72924;SDS011;61070;50.794;7.054;2023-03-01T09:02:33;26.02;;;14.15;;
72924;SDS011;61070;50.794;7.054;2023-03-01T09:04:59;34.22;;;15.15;;
72924;SDS011;61070;50.794;7.054;2023-03-01T09:07:25;34.45;;;15.98;;
72924;SDS011;61070;50.794;7.054;2023-03-01T09:09:53;26.60;;;14.80;;
72924;SDS011;61070;50.794;7.054;2023-03-01T09:12:19;29.90;;;14.60;;
72924;SDS011;61070;50.794;7.054;2023-03-01T09:14:44;33.65;;;16.38;;
72924;SDS011;61070;50.794;7.054;2023-03-01T09:17:09;35.58;;;15.77;;
72924;SDS011;61070;50.794;7.054;2023-03-01T09:19:35;28.48;;;14.95;;
72924;SDS011;61070;50.794;7.054;2023-03-01T09:22:00;32.50;;;15.88;;
72924;SDS011;61070;50.794;7.054;2023-03-01T09:24:25;28.20;;;15.23;;
72924;SDS011;61070;50.794;7.054;2023-03-01T09:26:53;29.48;;;15.35;;
72924;SDS011;61070;50.794;7.054;2023-03-01T09:29:20;35.17;;;16.40;;
72924;SDS011;61070;50.794;7.054;2023-03-01T09:31:46;35.42;;;15.63;;
72924;SDS011;61070;50.794;7.054;2023-03-01T09:34:11;37.38;;;15.70;;
72924;SDS011;61070;50.794;7.054;2023-03-01T09:36:36;33.30;;;16.88;;
72924;SDS011;61070;50.794;7.054;2023-03-01T09:39:02;31.75;;;15.38;;
72924;SDS011;61070;50.794;7.054;2023-03-01T09:44:10;32.75;;;17.58;;
72924;SDS011;61070;50.794;7.054;2023-03-01T09:46:42;27.70;;;15.30;;
72924;SDS011;61070;50.794;7.054;2023-03-01T09:49:10;31.23;;;15.27;;
72924;SDS011;61070;50.794;7.054;2023-03-01T09:51:41;34.42;;;16.20;;
72924;SDS011;61070;50.794;7.054;2023-03-01T09:54:08;36.10;;;16.55;;
72924;SDS011;61070;50.794;7.054;2023-03-01T09:56:39;35.83;;;17.73;;
72924;SDS011;61070;50.794;7.054;2023-03-01T09:59:18;26.00;;;14.57;;
72924;SDS011;61070;50.794;7.054;2023-03-01T10:04:49;31.52;;;14.90;;
72924;SDS011;61070;50.794;7.054;2023-03-01T10:07:21;33.28;;;15.80;;
72924;SDS011;61070;50.794;7.054;2023-03-01T10:10:05;36.13;;;14.98;;
72924;SDS011;61070;50.794;7.054;2023-03-01T10:12:33;30.48;;;15.52;;
72924;SDS011;61070;50.794;7.054;2023-03-01T10:15:15;29.70;;;15.93;;
72924;SDS011;61070;50.794;7.054;2023-03-01T10:20:40;29.10;;;16.08;;
72924;SDS011;61070;50.794;7.054;2023-03-01T10:23:10;30.02;;;15.65;;
72924;SDS011;61070;50.794;7.054;2023-03-01T10:28:25;34.10;;;17.02;;
72924;SDS011;61070;50.794;7.054;2023-03-01T10:30:56;38.03;;;16.08;;
72924;SDS011;61070;50.794;7.054;2023-03-01T10:33:25;32.00;;;15.60;;
72924;SDS011;61070;50.794;7.054;2023-03-01T10:35:54;27.77;;;13.98;;
72924;SDS011;61070;50.794;7.054;2023-03-01T10:38:19;22.75;;;13.43;;
72924;SDS011;61070;50.794;7.054;2023-03-01T10:40:49;23.23;;;13.55;;
72924;SDS011;61070;50.794;7.054;2023-03-01T10:43:17;27.63;;;13.90;;
72924;SDS011;61070;50.794;7.054;2023-03-01T10:45:43;20.35;;;12.23;;
72924;SDS011;61070;50.794;7.054;2023-03-01T10:48:17;23.90;;;12.45;;
72924;SDS011;61070;50.794;7.054;2023-03-01T10:51:06;27.58;;;12.48;;
72924;SDS011;61070;50.794;7.054;2023-03-01T10:56:00;23.05;;;13.10;;
72924;SDS011;61070;50.794;7.054;2023-03-01T10:58:32;18.50;;;11.23;;
72924;SDS011;61070;50.794;7.054;2023-03-01T11:01:00;23.50;;;11.80;;
72924;SDS011;61070;50.794;7.054;2023-03-01T11:03:37;44.38;;;13.13;;
72924;SDS011;61070;50.794;7.054;2023-03-01T11:08:45;24.63;;;11.25;;
72924;SDS011;61070;50.794;7.054;2023-03-01T11:13:36;22.65;;;12.18;;
72924;SDS011;61070;50.794;7.054;2023-03-01T11:16:14;22.00;;;10.82;;
72924;SDS011;61070;50.794;7.054;2023-03-01T11:18:56;23.85;;;11.55;;
72924;SDS011;61070;50.794;7.054;2023-03-01T11:21:22;21.08;;;10.52;;
72924;SDS011;61070;50.794;7.054;2023-03-01T11:23:49;19.10;;;9.88;;
72924;SDS011;61070;50.794;7.054;2023-03-01T11:26:15;17.80;;;9.82;;
72924;SDS011;61070;50.794;7.054;2023-03-01T11:28:42;18.58;;;9.60;;
72924;SDS011;61070;50.794;7.054;2023-03-01T11:31:13;17.40;;;9.60;;
72924;SDS011;61070;50.794;7.054;2023-03-01T11:39:03;21.90;;;10.90;;
72924;SDS011;61070;50.794;7.054;2023-03-01T11:41:38;22.42;;;10.90;;
72924;SDS011;61070;50.794;7.054;2023-03-01T11:46:44;18.83;;;10.10;;
72924;SDS011;61070;50.794;7.054;2023-03-01T12:03:00;18.33;;;10.80;;
72924;SDS011;61070;50.794;7.054;2023-03-01T12:05:42;19.23;;;11.57;;
72924;SDS011;61070;50.794;7.054;2023-03-01T12:11:23;17.92;;;11.20;;
72924;SDS011;61070;50.794;7.054;2023-03-01T12:19:24;25.05;;;11.48;;
72924;SDS011;61070;50.794;7.054;2023-03-01T12:25:45;22.73;;;10.90;;
72924;SDS011;61070;50.794;7.054;2023-03-01T12:33:17;15.60;;;9.07;;
72924;SDS011;61070;50.794;7.054;2023-03-01T12:36:03;22.13;;;10.77;;
72924;SDS011;61070;50.794;7.054;2023-03-01T12:38:48;21.85;;;10.00;;
72924;SDS011;61070;50.794;7.054;2023-03-01T12:41:26;16.63;;;9.90;;
72924;SDS011;61070;50.794;7.054;2023-03-01T12:44:40;14.70;;;9.18;;
72924;SDS011;61070;50.794;7.054;2023-03-01T12:47:04;20.08;;;10.43;;
72924;SDS011;61070;50.794;7.054;2023-03-01T12:49:47;22.92;;;10.57;;
72924;SDS011;61070;50.794;7.054;2023-03-01T12:52:20;15.80;;;9.02;;
72924;SDS011;61070;50.794;7.054;2023-03-01T12:54:53;17.75;;;9.23;;
72924;SDS011;61070;50.794;7.054;2023-03-01T12:57:25;19.05;;;9.48;;
72924;SDS011;61070;50.794;7.054;2023-03-01T13:03:15;14.50;;;8.82;;
72924;SDS011;61070;50.794;7.054;2023-03-01T13:08:50;12.05;;;8.65;;
72924;SDS011;61070;50.794;7.054;2023-03-01T13:11:19;18.63;;;8.52;;
72924;SDS011;61070;50.794;7.054;2023-03-01T13:13:47;18.88;;;8.93;;
72924;SDS011;61070;50.794;7.054;2023-03-01T13:19:06;20.77;;;8.60;;
72924;SDS011;61070;50.794;7.054;2023-03-01T13:21:37;15.98;;;7.97;;
72924;SDS011;61070;50.794;7.054;2023-03-01T13:24:03;16.65;;;7.72;;
72924;SDS011;61070;50.794;7.054;2023-03-01T13:26:28;16.08;;;7.93;;
72924;SDS011;61070;50.794;7.054;2023-03-01T13:28:54;17.80;;;8.45;;
72924;SDS011;61070;50.794;7.054;2023-03-01T13:33:53;15.32;;;7.50;;
72924;SDS011;61070;50.794;7.054;2023-03-01T13:46:49;13.55;;;7.00;;
72924;SDS011;61070;50.794;7.054;2023-03-01T13:49:17;14.13;;;7.28;;
72924;SDS011;61070;50.794;7.054;2023-03-01T13:51:48;12.32;;;6.95;;
72924;SDS011;61070;50.794;7.054;2023-03-01T13:54:15;13.00;;;7.72;;
72924;SDS011;61070;50.794;7.054;2023-03-01T13:56:44;14.50;;;6.82;;
72924;SDS011;61070;50.794;7.054;2023-03-01T13:59:14;16.23;;;7.75;;
72924;SDS011;61070;50.794;7.054;2023-03-01T14:01:45;13.25;;;6.90;;
72924;SDS011;61070;50.794;7.054;2023-03-01T14:04:25;16.00;;;7.05;;
72924;SDS011;61070;50.794;7.054;2023-03-01T14:07:08;13.23;;;7.00;;
72924;SDS011;61070;50.794;7.054;2023-03-01T14:09:44;13.80;;;7.75;;
72924;SDS011;61070;50.794;7.054;2023-03-01T14:12:15;12.90;;;7.65;;
72924;SDS011;61070;50.794;7.054;2023-03-01T14:15:04;13.23;;;7.20;;
72924;SDS011;61070;50.794;7.054;2023-03-01T14:22:38;13.05;;;7.32;;
72924;SDS011;61070;50.794;7.054;2023-03-01T14:25:29;12.73;;;7.60;;
72924;SDS011;61070;50.794;7.054;2023-03-01T14:28:01;16.55;;;7.90;;
72924;SDS011;61070;50.794;7.054;2023-03-01T14:30:31;12.15;;;6.85;;
72924;SDS011;61070;50.794;7.054;2023-03-01T14:33:01;11.60;;;6.43;;
72924;SDS011;61070;50.794;7.054;2023-03-01T14:35:30;14.35;;;6.65;;
72924;SDS011;61070;50.794;7.054;2023-03-01T14:37:57;13.25;;;7.28;;
72924;SDS011;61070;50.794;7.054;2023-03-01T14:40:24;14.00;;;8.05;;
72924;SDS011;61070;50.794;7.054;2023-03-01T14:42:53;14.73;;;8.38;;
72924;SDS011;61070;50.794;7.054;2023-03-01T14:45:20;14.43;;;8.43;;
72924;SDS011;61070;50.794;7.054;2023-03-01T14:47:45;16.30;;;8.40;;
72924;SDS011;61070;50.794;7.054;2023-03-01T14:52:44;14.20;;;7.72;;
72924;SDS011;61070;50.794;7.054;2023-03-01T14:55:15;15.43;;;8.60;;
72924;SDS011;61070;50.794;7.054;2023-03-01T14:57:44;19.05;;;8.43;;
72924;SDS011;61070;50.794;7.054;2023-03-01T15:00:16;18.70;;;8.98;;
72924;SDS011;61070;50.794;7.054;2023-03-01T15:02:50;13.23;;;8.05;;
72924;SDS011;61070;50.794;7.054;2023-03-01T15:05:18;14.90;;;7.80;;
72924;SDS011;61070;50.794;7.054;2023-03-01T15:07:50;15.80;;;7.70;;
72924;SDS011;61070;50.794;7.054;2023-03-01T15:10:26;17.38;;;7.95;;
72924;SDS011;61070;50.794;7.054;2023-03-01T15:12:54;13.75;;;7.18;;
72924;SDS011;61070;50.794;7.054;2023-03-01T15:17:56;14.63;;;7.50;;
72924;SDS011;61070;50.794;7.054;2023-03-01T15:20:28;16.67;;;7.32;;
72924;SDS011;61070;50.794;7.054;2023-03-01T15:22:56;18.05;;;8.30;;
72924;SDS011;61070;50.794;7.054;2023-03-01T15:25:24;11.32;;;6.18;;
72924;SDS011;61070;50.794;7.054;2023-03-01T15:27:52;16.40;;;7.50;;
72924;SDS011;61070;50.794;7.054;2023-03-01T15:30:23;14.35;;;7.18;;
72924;SDS011;61070;50.794;7.054;2023-03-01T15:35:49;16.40;;;7.60;;
72924;SDS011;61070;50.794;7.054;2023-03-01T15:38:29;29.85;;;9.88;;
72924;SDS011;61070;50.794;7.054;2023-03-01T15:41:04;16.58;;;7.18;;
72924;SDS011;61070;50.794;7.054;2023-03-01T15:43:47;15.75;;;7.97;;
72924;SDS011;61070;50.794;7.054;2023-03-01T15:46:21;12.52;;;7.18;;
72924;SDS011;61070;50.794;7.054;2023-03-01T15:49:03;21.65;;;8.07;;
72924;SDS011;61070;50.794;7.054;2023-03-01T15:51:36;14.40;;;8.00;;
72924;SDS011;61070;50.794;7.054;2023-03-01T15:54:05;13.95;;;7.63;;
72924;SDS011;61070;50.794;7.054;2023-03-01T15:56:37;19.77;;;7.43;;
72924;SDS011;61070;50.794;7.054;2023-03-01T15:59:03;13.27;;;7.53;;
72924;SDS011;61070;50.794;7.054;2023-03-01T16:01:28;15.60;;;8.68;;
72924;SDS011;61070;50.794;7.054;2023-03-01T16:03:54;11.82;;;7.60;;
72924;SDS011;61070;50.794;7.054;2023-03-01T16:06:19;16.98;;;8.05;;
72924;SDS011;61070;50.794;7.054;2023-03-01T16:08:45;18.35;;;8.68;;
72924;SDS011;61070;50.794;7.054;2023-03-01T16:11:13;18.90;;;8.90;;
72924;SDS011;61070;50.794;7.054;2023-03-01T16:13:40;20.00;;;8.55;;
72924;SDS011;61070;50.794;7.054;2023-03-01T16:16:05;11.65;;;7.03;;
72924;SDS011;61070;50.794;7.054;2023-03-01T16:18:32;19.52;;;8.27;;
72924;SDS011;61070;50.794;7.054;2023-03-01T16:20:57;13.45;;;8.05;;
72924;SDS011;61070;50.794;7.054;2023-03-01T16:23:22;18.15;;;8.18;;